Time;durP1;ratioP1;P1;durP2;ratioP2;P2;SDS_P1;SDS_P2;PMS_P1;PMS_P2;Temp;Humidity;BMP_temperature;BMP_pressure;BME280_temperature;BME280_humidity;BME280_pressure;Samples;Min_cycle;Max_cycle;Signal;HPM_P1;HPM_P2
2021/10/17 00:01:50;;;;;;;430.98;256.33;;;;;;;10.69;100.00;99753.16;5093215;28;20637;-71
2021/10/17 00:04:16;;;;;;;416.50;238.82;;;;;;;10.75;100.00;99758.22;5093052;28;20218;-73
2021/10/17 00:06:43;;;;;;;79.53;45.63;;;;;;;10.88;100.00;99754.81;5081744;28;20184;-73
2021/10/17 00:09:10;;;;;;;62.67;36.72;;;;;;;10.79;97.46;99756.22;5090226;28;20187;-73
2021/10/17 00:11:38;;;;;;;147.57;84.13;;;;;;;10.81;96.84;99757.00;5079680;28;20199;-71
2021/10/17 00:14:04;;;;;;;118.18;66.75;;;;;;;10.87;96.00;99761.16;5078801;28;20188;-72
2021/10/17 00:16:31;;;;;;;90.85;50.83;;;;;;;10.98;95.44;99753.34;5072709;28;20722;-71
2021/10/17 00:18:57;;;;;;;57.60;36.22;;;;;;;10.97;95.33;99755.19;5082820;28;20192;-72
2021/10/17 00:21:24;;;;;;;311.80;169.95;;;;;;;10.91;97.82;99752.81;5072264;28;20192;-71
2021/10/17 00:23:51;;;;;;;156.02;87.15;;;;;;;10.61;98.06;99748.22;5088600;28;20195;-71
2021/10/17 00:26:17;;;;;;;52.15;30.30;;;;;;;10.39;100.00;99747.66;5092149;28;20196;-72
2021/10/17 00:28:45;;;;;;;74.68;43.08;;;;;;;10.43;100.00;99746.56;5092490;28;20233;-73
2021/10/17 00:31:12;;;;;;;33.78;22.83;;;;;;;10.77;97.39;99734.75;5089946;28;20195;-72
2021/10/17 00:33:38;;;;;;;37.25;22.50;;;;;;;10.82;95.99;99737.19;5083664;28;20199;-72
2021/10/17 00:36:06;;;;;;;39.78;25.35;;;;;;;10.89;95.00;99740.41;5072352;28;20607;-73
2021/10/17 00:38:32;;;;;;;62.63;37.17;;;;;;;10.85;95.27;99739.69;5077449;28;20192;-72
2021/10/17 00:40:59;;;;;;;69.20;39.88;;;;;;;10.79;95.78;99740.06;5092646;28;20187;-72
2021/10/17 00:43:26;;;;;;;57.63;35.75;;;;;;;10.87;96.50;99742.31;5086142;28;20184;-72
2021/10/17 00:45:54;;;;;;;52.25;32.75;;;;;;;10.63;97.42;99740.06;5088035;28;20226;-72
2021/10/17 00:48:20;;;;;;;60.70;36.75;;;;;;;10.55;98.20;99737.78;5091574;28;20188;-72
2021/10/17 00:50:48;;;;;;;89.93;51.10;;;;;;;10.68;97.73;99727.19;5086115;28;20192;-72
2021/10/17 00:53:15;;;;;;;32.80;21.27;;;;;;;10.87;95.20;99731.53;5072132;28;20200;-72
2021/10/17 00:55:41;;;;;;;37.67;24.77;;;;;;;10.88;94.86;99728.75;5073271;28;20528;-71
2021/10/17 00:58:08;;;;;;;48.83;30.70;;;;;;;10.73;96.37;99737.72;5091088;28;20275;-72
2021/10/17 01:00:34;;;;;;;61.40;36.78;;;;;;;10.80;96.39;99728.31;5092024;28;20214;-72
2021/10/17 01:03:02;;;;;;;58.20;36.70;;;;;;;10.56;97.22;99733.25;5091548;28;20188;-71
2021/10/17 01:05:29;;;;;;;52.13;35.55;;;;;;;10.55;98.27;99721.63;5091431;28;20202;-71
2021/10/17 01:07:57;;;;;;;46.63;29.30;;;;;;;10.43;98.77;99725.88;5080744;28;20613;-71
2021/10/17 01:10:23;;;;;;;52.05;33.03;;;;;;;10.56;98.53;99718.00;5073295;28;20294;-71
2021/10/17 01:12:50;;;;;;;94.50;52.97;;;;;;;10.76;97.19;99715.97;5090876;28;20207;-72
2021/10/17 01:15:17;;;;;;;61.25;38.22;;;;;;;10.93;95.87;99715.91;5091875;28;20188;-72
2021/10/17 01:17:43;;;;;;;53.20;33.55;;;;;;;10.90;95.23;99713.38;5090392;28;20295;-72
2021/10/17 01:20:11;;;;;;;44.58;28.70;;;;;;;11.00;94.45;99714.56;5081413;28;20607;-72
2021/10/17 01:22:41;;;;;;;33.75;22.65;;;;;;;10.84;94.30;99711.03;5071743;28;20206;-72
2021/10/17 01:25:08;;;;;;;69.63;41.22;;;;;;;10.64;96.92;99710.34;5071400;28;20213;-72
2021/10/17 01:27:35;;;;;;;43.88;28.27;;;;;;;10.55;97.57;99707.31;5071707;28;20564;-72
2021/10/17 01:30:01;;;;;;;50.28;33.13;;;;;;;10.38;99.29;99710.94;5076229;28;20314;-72
2021/10/17 01:32:28;;;;;;;41.25;26.52;;;;;;;10.34;100.00;99706.69;5089728;28;20275;-73
2021/10/17 01:34:55;;;;;;;66.40;40.05;;;;;;;10.28;100.00;99702.47;5091755;28;20816;-71
2021/10/17 01:37:24;;;;;;;62.25;38.80;;;;;;;10.21;100.00;99701.06;5088385;28;20188;-71
2021/10/17 01:39:51;;;;;;;39.40;26.52;;;;;;;10.27;100.00;99694.50;5088907;28;20246;-73
2021/10/17 01:42:18;;;;;;;44.15;27.60;;;;;;;10.34;100.00;99691.41;5078377;28;21682;-72
2021/10/17 01:44:44;;;;;;;61.90;37.95;;;;;;;10.56;100.00;99692.88;5090812;28;20208;-71
2021/10/17 01:47:11;;;;;;;45.47;28.75;;;;;;;10.72;99.32;99691.06;5080971;28;20197;-72
2021/10/17 01:49:38;;;;;;;42.40;28.90;;;;;;;10.84;96.71;99700.25;5087629;28;20597;-73
2021/10/17 01:52:06;;;;;;;75.22;47.80;;;;;;;10.85;98.15;99688.50;5090213;28;20547;-72
2021/10/17 01:54:34;;;;;;;35.63;25.95;;;;;;;10.93;96.21;99688.09;5088401;28;20207;-73
2021/10/17 01:57:00;;;;;;;40.20;26.88;;;;;;;11.01;95.34;99694.78;5074695;28;20645;-72
2021/10/17 01:59:27;;;;;;;46.35;29.55;;;;;;;10.57;97.51;99691.94;5073726;28;20295;-72
2021/10/17 02:01:53;;;;;;;44.65;27.40;;;;;;;10.57;98.35;99687.41;5090800;28;20196;-72
2021/10/17 02:04:20;;;;;;;46.70;29.50;;;;;;;10.33;100.00;99683.41;5091558;28;20190;-72
2021/10/17 02:06:47;;;;;;;47.90;28.98;;;;;;;10.26;100.00;99687.38;5091446;28;20231;-73
2021/10/17 02:09:13;;;;;;;42.95;28.52;;;;;;;10.52;100.00;99686.81;5090012;28;20188;-72
2021/10/17 02:11:41;;;;;;;44.97;28.08;;;;;;;10.46;100.00;99691.66;5079713;28;20193;-72
2021/10/17 02:14:08;;;;;;;58.47;35.05;;;;;;;10.64;100.00;99688.78;5071036;28;20200;-71
2021/10/17 02:16:35;;;;;;;64.60;37.40;;;;;;;10.82;98.51;99691.41;5086760;28;20512;-71
2021/10/17 02:19:01;;;;;;;47.33;31.45;;;;;;;10.87;97.50;99685.75;5090441;28;20614;-73
2021/10/17 02:21:28;;;;;;;57.67;36.15;;;;;;;10.88;97.71;99680.28;5078421;28;20650;-71
2021/10/17 02:23:54;;;;;;;40.95;27.73;;;;;;;10.95;97.39;99686.19;5087555;28;20191;-72
2021/10/17 02:26:21;;;;;;;54.00;33.45;;;;;;;11.01;96.23;99678.59;5088897;28;20211;-72
2021/10/17 02:28:49;;;;;;;43.33;28.17;;;;;;;11.19;94.33;99670.38;5090779;28;20583;-72
2021/10/17 02:31:16;;;;;;;54.10;32.60;;;;;;;11.26;94.32;99671.72;5094777;28;20196;-72
2021/10/17 02:33:43;;;;;;;52.85;36.58;;;;;;;11.31;93.36;99669.66;5095040;28;20184;-72
2021/10/17 02:36:10;;;;;;;43.90;29.23;;;;;;;11.30;92.03;99667.91;5095127;28;20188;-72
2021/10/17 02:38:36;;;;;;;43.38;30.77;;;;;;;11.34;92.82;99658.69;5094359;28;20200;-72
2021/10/17 02:41:03;;;;;;;33.55;25.70;;;;;;;11.47;92.54;99662.38;5087250;28;20188;-71
2021/10/17 02:43:30;;;;;;;33.50;24.50;;;;;;;11.66;88.95;99658.53;5091773;28;20184;-72
2021/10/17 02:45:58;;;;;;;33.60;24.92;;;;;;;11.36;90.49;99661.28;5089438;28;20219;-72
2021/10/17 02:48:24;;;;;;;32.90;25.67;;;;;;;11.30;90.10;99664.34;5089095;28;20199;-72
2021/10/17 02:50:51;;;;;;;32.28;25.17;;;;;;;11.26;90.89;99663.66;5090616;28;20184;-72
2021/10/17 02:53:17;;;;;;;34.15;24.33;;;;;;;11.22;90.66;99665.69;5093916;28;20196;-72
2021/10/17 02:55:44;;;;;;;35.47;24.65;;;;;;;11.10;91.83;99668.22;5094600;28;20610;-71
2021/10/17 02:58:11;;;;;;;33.78;24.35;;;;;;;11.23;91.58;99670.09;5091838;28;20195;-72
2021/10/17 03:00:37;;;;;;;35.20;25.25;;;;;;;11.41;90.42;99662.72;5092454;28;20192;-72
2021/10/17 03:03:05;;;;;;;33.53;24.80;;;;;;;11.41;90.27;99667.25;5089527;28;20191;-71
2021/10/17 03:05:32;;;;;;;35.90;25.77;;;;;;;11.60;88.29;99662.50;5079115;28;20231;-71
2021/10/17 03:07:59;;;;;;;29.67;24.02;;;;;;;11.59;88.19;99666.13;5087167;28;20199;-71
2021/10/17 03:10:26;;;;;;;28.83;23.15;;;;;;;11.62;87.08;99657.88;5083940;28;20292;-72
2021/10/17 03:12:53;;;;;;;33.92;24.85;;;;;;;11.48;87.87;99658.69;5093916;28;20638;-73
2021/10/17 03:15:20;;;;;;;34.90;26.38;;;;;;;11.31;89.57;99671.50;5094310;28;20184;-72
2021/10/17 03:17:47;;;;;;;33.45;24.55;;;;;;;11.40;89.31;99660.16;5093854;28;20290;-71
2021/10/17 03:20:15;;;;;;;35.03;24.33;;;;;;;11.37;88.44;99665.72;5094194;28;20181;-73
2021/10/17 03:22:42;;;;;;;31.25;24.02;;;;;;;11.41;88.37;99660.03;5094180;28;20682;-73
2021/10/17 03:25:09;;;;;;;33.28;25.13;;;;;;;11.53;87.98;99655.72;5093795;28;20223;-71
2021/10/17 03:27:36;;;;;;;34.17;24.55;;;;;;;11.73;86.00;99656.34;5094057;28;20194;-72
2021/10/17 03:30:03;;;;;;;34.20;24.65;;;;;;;11.66;86.40;99654.00;5093051;28;20224;-71
2021/10/17 03:32:29;;;;;;;34.72;25.63;;;;;;;11.79;85.76;99654.13;5093816;28;20202;-72
2021/10/17 03:34:56;;;;;;;36.08;26.25;;;;;;;11.65;86.25;99649.59;5091261;28;20196;-72
2021/10/17 03:37:24;;;;;;;34.13;24.98;;;;;;;11.72;85.75;99655.47;5089114;28;20526;-73
2021/10/17 03:39:50;;;;;;;32.85;25.83;;;;;;;11.63;86.25;99647.94;5083180;28;20200;-71
2021/10/17 03:42:17;;;;;;;35.38;26.23;;;;;;;11.53;87.27;99647.63;5093343;28;20189;-72
2021/10/17 03:44:44;;;;;;;32.22;25.60;;;;;;;11.62;86.54;99648.91;5093774;28;20530;-73
2021/10/17 03:47:10;;;;;;;33.75;25.75;;;;;;;11.63;86.43;99650.66;5093527;28;20229;-73
2021/10/17 03:49:37;;;;;;;32.20;25.58;;;;;;;11.83;84.51;99654.81;5089701;28;20195;-73
2021/10/17 03:52:04;;;;;;;32.97;24.33;;;;;;;11.75;84.68;99654.41;5090330;28;20190;-72
2021/10/17 03:54:32;;;;;;;33.20;25.05;;;;;;;11.66;85.24;99648.63;5086217;28;20199;-73
2021/10/17 03:56:58;;;;;;;33.33;25.48;;;;;;;11.53;86.03;99644.94;5090873;28;20184;-72
2021/10/17 03:59:25;;;;;;;31.75;23.88;;;;;;;11.36;86.38;99648.66;5093093;28;20640;-72
2021/10/17 04:01:52;;;;;;;33.90;25.90;;;;;;;11.43;85.77;99643.78;5077893;28;20207;-72
2021/10/17 04:04:18;;;;;;;33.97;25.90;;;;;;;11.45;85.38;99648.13;5075284;28;20208;-72
2021/10/17 04:06:45;;;;;;;36.53;24.67;;;;;;;11.46;86.01;99639.09;5092928;28;20204;-72
2021/10/17 04:09:12;;;;;;;32.90;24.63;;;;;;;11.40;86.45;99644.84;5092515;28;20200;-73
2021/10/17 04:11:40;;;;;;;31.75;23.30;;;;;;;11.41;86.87;99657.34;5092663;28;20629;-72
2021/10/17 04:14:06;;;;;;;37.25;24.60;;;;;;;11.45;87.11;99642.72;5093173;28;20194;-72
2021/10/17 04:16:33;;;;;;;36.70;24.60;;;;;;;11.45;86.11;99647.25;5093195;28;20661;-71
2021/10/17 04:19:00;;;;;;;33.45;24.00;;;;;;;11.34;86.65;99657.81;5092825;28;20540;-73
2021/10/17 04:21:26;;;;;;;31.23;23.92;;;;;;;11.19;87.38;99652.41;5075545;28;20554;-71
2021/10/17 04:23:53;;;;;;;31.92;24.52;;;;;;;11.23;87.65;99655.75;5084551;28;20187;-72
2021/10/17 04:26:19;;;;;;;31.25;24.35;;;;;;;11.36;87.34;99650.50;5077343;28;20221;-71
2021/10/17 04:28:47;;;;;;;35.95;26.15;;;;;;;11.29;87.36;99660.78;5091856;28;21104;-70
2021/10/17 04:31:14;;;;;;;32.08;24.58;;;;;;;11.25;87.62;99661.94;5083647;28;20195;-72
2021/10/17 04:33:41;;;;;;;34.30;25.20;;;;;;;11.31;87.10;99660.72;5092121;28;20638;-72
2021/10/17 04:36:08;;;;;;;32.67;26.17;;;;;;;11.36;86.85;99666.69;5090540;28;20661;-72
2021/10/17 04:38:35;;;;;;;33.72;23.60;;;;;;;11.31;86.71;99668.78;5087948;28;20194;-72
2021/10/17 04:41:01;;;;;;;34.40;23.63;;;;;;;11.37;86.36;99668.41;5089528;28;20190;-72
2021/10/17 04:43:28;;;;;;;34.75;25.80;;;;;;;11.31;86.78;99666.97;5078488;28;21091;-72
2021/10/17 04:45:56;;;;;;;35.25;24.08;;;;;;;11.31;87.38;99671.50;5072464;28;21005;-71
2021/10/17 04:48:23;;;;;;;32.97;24.35;;;;;;;11.39;86.35;99669.19;5077457;28;20196;-73
2021/10/17 04:50:50;;;;;;;44.20;25.63;;;;;;;11.31;86.88;99658.88;5084698;28;20301;-73
2021/10/17 04:53:16;;;;;;;38.28;26.80;;;;;;;11.32;86.52;99663.28;5075746;28;20204;-72
2021/10/17 04:55:43;;;;;;;34.05;25.33;;;;;;;11.35;86.32;99659.53;5072210;28;20959;-74
2021/10/17 04:58:09;;;;;;;35.95;25.45;;;;;;;11.27;86.59;99662.72;5080969;28;20199;-73
2021/10/17 05:00:36;;;;;;;33.13;24.35;;;;;;;11.50;85.24;99658.63;5092095;28;20386;-72
2021/10/17 05:03:04;;;;;;;33.15;25.27;;;;;;;11.57;84.39;99659.97;5092072;28;20192;-73
2021/10/17 05:05:31;;;;;;;33.35;24.63;;;;;;;11.64;83.45;99660.47;5092197;28;20196;-73
2021/10/17 05:07:57;;;;;;;34.42;24.75;;;;;;;11.46;84.10;99665.16;5091994;28;20195;-73
2021/10/17 05:10:24;;;;;;;33.50;25.40;;;;;;;11.42;84.62;99661.78;5087640;28;20210;-73
2021/10/17 05:12:51;;;;;;;37.45;26.85;;;;;;;11.37;84.84;99663.00;5091224;28;20200;-73
2021/10/17 05:15:17;;;;;;;35.30;27.77;;;;;;;11.38;84.85;99671.03;5091346;28;20188;-73
2021/10/17 05:17:44;;;;;;;31.63;24.20;;;;;;;11.39;84.19;99680.81;5091876;28;20202;-72
2021/10/17 05:20:12;;;;;;;43.78;28.90;;;;;;;11.40;85.01;99668.25;5091472;28;20190;-72
2021/10/17 05:22:39;;;;;;;32.65;22.98;;;;;;;11.42;83.89;99672.56;5091787;28;20672;-72
2021/10/17 05:25:06;;;;;;;38.50;25.02;;;;;;;11.37;84.17;99680.06;5091143;28;20275;-72
2021/10/17 05:27:33;;;;;;;32.90;25.05;;;;;;;11.32;84.65;99674.06;5091664;28;20223;-72
2021/10/17 05:29:59;;;;;;;36.85;25.80;;;;;;;11.44;83.83;99673.34;5091545;28;20237;-72
2021/10/17 05:32:26;;;;;;;32.72;23.10;;;;;;;11.33;84.01;99673.13;5091413;28;20207;-72
2021/10/17 05:34:53;;;;;;;34.88;25.10;;;;;;;11.29;84.12;99681.50;5091730;28;20278;-72
2021/10/17 05:37:21;;;;;;;37.47;26.48;;;;;;;11.40;83.59;99684.41;5091574;28;20183;-73
2021/10/17 05:39:47;;;;;;;31.67;23.05;;;;;;;11.28;83.59;99683.28;5091109;28;20187;-72
2021/10/17 05:42:14;;;;;;;35.78;26.13;;;;;;;11.21;84.42;99684.63;5091885;28;20194;-72
2021/10/17 05:44:41;;;;;;;34.55;25.00;;;;;;;11.13;85.01;99679.72;5091439;28;20541;-72
2021/10/17 05:47:07;;;;;;;34.53;24.85;;;;;;;11.23;84.52;99678.19;5090474;28;20200;-73
2021/10/17 05:49:34;;;;;;;40.15;25.33;;;;;;;11.05;85.62;99676.59;5091573;28;20210;-72
2021/10/17 05:52:00;;;;;;;35.50;24.85;;;;;;;10.99;86.40;99687.72;5090301;28;20619;-72
2021/10/17 05:54:29;;;;;;;38.67;26.20;;;;;;;11.37;84.02;99687.28;5091556;28;20200;-72
2021/10/17 05:56:55;;;;;;;34.15;25.33;;;;;;;11.28;84.30;99688.69;5091788;28;20212;-72
2021/10/17 05:59:22;;;;;;;37.47;25.17;;;;;;;11.27;84.34;99695.91;5090502;28;20196;-72
2021/10/17 06:01:48;;;;;;;36.17;25.88;;;;;;;11.27;84.72;99689.66;5090134;28;20191;-72
2021/10/17 06:04:15;;;;;;;37.65;25.67;;;;;;;11.21;85.10;99698.97;5092171;28;20199;-72
2021/10/17 06:06:42;;;;;;;35.22;24.33;;;;;;;11.24;85.44;99697.94;5094660;28;20594;-73
2021/10/17 06:09:09;;;;;;;42.45;28.38;;;;;;;11.24;85.31;99700.63;5095633;28;20211;-73
2021/10/17 06:11:38;;;;;;;36.33;24.30;;;;;;;11.39;84.10;99701.53;5092777;28;20252;-72
2021/10/17 06:14:06;;;;;;;34.95;24.35;;;;;;;11.46;83.62;99708.28;5095290;28;20645;-72
2021/10/17 06:16:32;;;;;;;36.05;25.35;;;;;;;11.39;84.09;99717.72;5095515;28;20234;-72
2021/10/17 06:18:59;;;;;;;37.72;25.17;;;;;;;11.48;83.29;99714.47;5095365;28;20642;-73
2021/10/17 06:21:26;;;;;;;35.03;25.23;;;;;;;11.52;82.86;99717.84;5095416;28;20184;-73
2021/10/17 06:23:52;;;;;;;33.83;25.02;;;;;;;11.61;82.18;99720.00;5094512;28;20191;-72
2021/10/17 06:26:19;;;;;;;34.13;24.25;;;;;;;11.73;80.80;99721.94;5093947;28;20226;-73
2021/10/17 06:28:47;;;;;;;37.25;25.83;;;;;;;11.81;80.30;99716.94;5092859;28;20251;-72
2021/10/17 06:31:14;;;;;;;36.40;25.80;;;;;;;11.78;80.06;99725.25;5088688;28;20203;-71
2021/10/17 06:33:40;;;;;;;34.80;25.58;;;;;;;11.65;80.52;99725.09;5088066;28;20195;-71
2021/10/17 06:36:07;;;;;;;34.72;24.23;;;;;;;11.78;80.20;99729.75;5083226;28;20202;-71
2021/10/17 06:38:34;;;;;;;36.03;25.23;;;;;;;11.78;80.28;99724.34;5085340;28;20198;-73
2021/10/17 06:41:00;;;;;;;34.75;24.15;;;;;;;11.71;80.65;99723.84;5090048;28;20689;-71
2021/10/17 06:43:27;;;;;;;33.72;24.50;;;;;;;11.69;81.02;99732.06;5087696;28;20204;-73
2021/10/17 06:45:55;;;;;;;34.40;24.15;;;;;;;11.66;80.94;99729.53;5074542;28;20192;-73
2021/10/17 06:48:21;;;;;;;37.05;25.98;;;;;;;11.57;80.93;99734.63;5075489;28;20200;-72
2021/10/17 06:50:48;;;;;;;38.20;23.88;;;;;;;11.56;81.17;99735.59;5074356;28;20200;-73
2021/10/17 06:53:14;;;;;;;34.63;24.98;;;;;;;11.66;81.11;99731.38;5089283;28;20189;-73
2021/10/17 06:55:41;;;;;;;32.60;23.85;;;;;;;11.56;81.88;99747.25;5082176;28;20201;-72
2021/10/17 06:58:07;;;;;;;33.10;24.35;;;;;;;11.53;81.32;99742.00;5085151;28;20195;-71
2021/10/17 07:00:34;;;;;;;33.20;24.17;;;;;;;11.68;81.09;99754.56;5087112;28;20195;-73
2021/10/17 07:03:02;;;;;;;31.52;22.67;;;;;;;11.62;80.76;99754.06;5092969;28;20300;-72
2021/10/17 07:05:29;;;;;;;31.73;23.65;;;;;;;11.74;80.49;99750.66;5075254;28;20189;-72
2021/10/17 07:07:55;;;;;;;29.45;22.25;;;;;;;11.61;81.03;99749.66;5094227;28;20306;-71
2021/10/17 07:10:22;;;;;;;33.15;24.38;;;;;;;11.66;81.04;99747.53;5093723;28;20206;-71
2021/10/17 07:12:48;;;;;;;32.45;24.13;;;;;;;11.99;79.16;99750.06;5093411;28;20198;-72
2021/10/17 07:15:15;;;;;;;33.03;23.40;;;;;;;12.10;78.21;99746.72;5093035;28;20295;-70
2021/10/17 07:17:42;;;;;;;33.55;23.80;;;;;;;12.08;78.66;99743.22;5093669;28;20536;-72
2021/10/17 07:20:11;;;;;;;35.95;24.45;;;;;;;12.19;77.65;99748.81;5093315;28;20275;-72
2021/10/17 07:22:37;;;;;;;30.55;22.45;;;;;;;12.02;78.05;99736.38;5093336;28;20199;-72
2021/10/17 07:25:05;;;;;;;34.60;23.52;;;;;;;11.81;78.93;99734.97;5094059;28;20200;-70
2021/10/17 07:27:32;;;;;;;32.65;24.85;;;;;;;11.98;78.55;99733.94;5093259;28;20266;-71
2021/10/17 07:29:58;;;;;;;28.85;22.33;;;;;;;12.20;76.75;99737.06;5097039;28;20636;-71
2021/10/17 07:32:25;;;;;;;30.23;22.30;;;;;;;12.30;76.34;99740.03;5093701;28;20214;-73
2021/10/17 07:34:51;;;;;;;28.95;20.42;;;;;;;12.36;75.53;99741.50;5093111;28;20208;-73
2021/10/17 07:37:19;;;;;;;29.73;22.15;;;;;;;12.34;75.36;99748.81;5092720;28;20649;-72
2021/10/17 07:39:46;;;;;;;26.13;18.13;;;;;;;12.33;75.06;99752.50;5092335;28;20282;-71
2021/10/17 07:42:12;;;;;;;31.23;21.98;;;;;;;12.35;75.44;99748.75;5089639;28;20207;-72
2021/10/17 07:44:39;;;;;;;30.40;21.23;;;;;;;12.52;74.77;99751.22;5084882;28;20718;-71
2021/10/17 07:47:06;;;;;;;25.42;20.10;;;;;;;12.66;74.14;99753.06;5072228;28;20234;-72
2021/10/17 07:49:32;;;;;;;31.10;20.27;;;;;;;12.67;73.53;99752.06;5081675;28;20201;-73
2021/10/17 07:51:59;;;;;;;27.92;19.77;;;;;;;12.56;74.08;99760.00;5092504;28;20608;-72
2021/10/17 07:54:27;;;;;;;26.42;18.70;;;;;;;12.42;74.90;99757.31;5092094;28;20184;-73
2021/10/17 07:56:54;;;;;;;25.42;19.00;;;;;;;12.44;74.20;99750.84;5087627;28;20200;-73
2021/10/17 07:59:20;;;;;;;25.38;19.17;;;;;;;12.67;73.51;99756.63;5088502;28;20202;-72
2021/10/17 08:01:47;;;;;;;27.33;18.95;;;;;;;12.82;72.62;99760.16;5083343;28;20196;-72
2021/10/17 08:04:13;;;;;;;28.58;18.85;;;;;;;13.11;71.15;99758.25;5072009;28;20203;-72
2021/10/17 08:06:40;;;;;;;23.15;16.08;;;;;;;13.02;70.76;99759.72;5087178;28;20282;-72
2021/10/17 08:09:07;;;;;;;20.80;15.25;;;;;;;13.15;69.61;99757.06;5091872;28;20200;-73
2021/10/17 08:11:34;;;;;;;21.25;15.85;;;;;;;13.18;69.92;99764.13;5092104;28;20283;-72
2021/10/17 08:14:01;;;;;;;21.60;14.13;;;;;;;13.14;69.10;99756.22;5092079;28;20196;-72
2021/10/17 08:16:28;;;;;;;19.65;14.45;;;;;;;13.19;68.89;99755.91;5091668;28;20211;-72
2021/10/17 08:18:54;;;;;;;20.90;15.57;;;;;;;13.21;68.65;99762.09;5092031;28;20285;-72
2021/10/17 08:21:21;;;;;;;20.27;15.25;;;;;;;13.08;69.71;99759.31;5091498;28;20547;-72
2021/10/17 08:23:47;;;;;;;24.92;16.40;;;;;;;13.30;69.34;99758.81;5084332;28;20198;-72
2021/10/17 08:26:14;;;;;;;23.90;17.20;;;;;;;13.26;69.31;99764.47;5079786;28;20191;-71
2021/10/17 08:28:42;;;;;;;19.75;13.93;;;;;;;13.25;68.95;99762.72;5071578;28;20234;-71
2021/10/17 08:31:09;;;;;;;22.52;15.57;;;;;;;13.02;70.28;99773.22;5085275;28;20189;-73
2021/10/17 08:33:35;;;;;;;20.75;14.75;;;;;;;13.17;69.61;99771.38;5082449;28;20227;-71
2021/10/17 08:36:02;;;;;;;20.08;14.07;;;;;;;13.30;68.71;99775.03;5086211;28;20271;-73
2021/10/17 08:38:29;;;;;;;23.00;16.38;;;;;;;13.38;68.58;99774.50;5090340;28;20177;-70
2021/10/17 08:40:56;;;;;;;22.25;16.33;;;;;;;13.51;67.69;99770.00;5079838;28;20626;-71
2021/10/17 08:43:24;;;;;;;22.00;16.30;;;;;;;13.47;68.07;99773.03;5086088;28;20585;-71
2021/10/17 08:45:52;;;;;;;22.40;16.50;;;;;;;13.60;67.67;99764.94;5082627;28;20291;-72
2021/10/17 08:48:19;;;;;;;20.80;15.27;;;;;;;13.50;67.80;99767.38;5079584;28;20234;-72
2021/10/17 08:50:47;;;;;;;21.13;15.00;;;;;;;13.41;68.20;99777.03;5077759;28;20205;-70
2021/10/17 08:53:14;;;;;;;19.17;14.85;;;;;;;13.53;67.42;99772.63;5080750;28;20183;-73
2021/10/17 08:55:44;;;;;;;19.10;14.90;;;;;;;13.51;67.79;99774.56;5079772;28;20287;-71
2021/10/17 08:58:11;;;;;;;22.05;16.83;;;;;;;13.53;67.56;99775.31;5080296;28;20193;-70
2021/10/17 09:00:38;;;;;;;25.00;16.67;;;;;;;13.46;67.51;99777.56;5079102;28;20285;-71
2021/10/17 09:03:06;;;;;;;22.70;16.63;;;;;;;13.22;68.61;99781.88;5082637;28;20192;-71
2021/10/17 09:05:39;;;;;;;24.00;16.00;;;;;;;13.21;68.60;99774.75;5076009;28;20194;-70
2021/10/17 09:08:06;;;;;;;21.95;15.75;;;;;;;13.13;69.08;99776.09;5081101;28;20671;-73
2021/10/17 09:10:33;;;;;;;21.17;15.13;;;;;;;12.96;69.58;99776.34;5089559;28;20181;-72
2021/10/17 09:13:09;;;;;;;20.95;16.25;;;;;;;13.02;69.65;99778.63;5079858;28;20625;-71
2021/10/17 09:15:35;;;;;;;22.20;16.63;;;;;;;12.91;70.06;99781.16;5079244;28;20200;-71
2021/10/17 09:18:12;;;;;;;29.30;21.17;;;;;;;12.90;70.21;99783.00;5079999;28;20195;-71
2021/10/17 09:20:53;;;;;;;27.40;18.48;;;;;;;12.93;70.07;99779.22;5074348;28;20598;-72
2021/10/17 09:23:36;;;;;;;23.67;18.48;;;;;;;12.95;70.20;99780.00;5077350;28;20202;-70
2021/10/17 09:26:09;;;;;;;21.88;15.80;;;;;;;13.06;69.47;99782.88;5092105;28;20180;-70
2021/10/17 09:28:37;;;;;;;21.50;17.00;;;;;;;13.01;69.16;99784.16;5091716;28;20229;-73
2021/10/17 09:31:06;;;;;;;24.33;17.63;;;;;;;13.14;68.93;99785.09;5091644;28;20185;-71
2021/10/17 09:33:35;;;;;;;26.70;17.60;;;;;;;12.96;69.61;99786.28;5103633;28;20200;-70
2021/10/17 09:36:16;;;;;;;25.27;18.27;;;;;;;13.17;69.12;99786.72;5101890;28;20265;-71
2021/10/17 09:38:44;;;;;;;27.48;17.90;;;;;;;12.99;69.59;99783.38;5093959;28;20266;-72
2021/10/17 09:41:16;;;;;;;23.55;16.90;;;;;;;12.98;69.86;99781.63;5081627;28;20198;-71
2021/10/17 09:43:50;;;;;;;27.05;17.63;;;;;;;12.98;70.21;99776.22;5083698;28;20247;-73
2021/10/17 09:46:17;;;;;;;21.30;17.08;;;;;;;12.96;70.22;99778.16;5082182;28;20194;-72
2021/10/17 09:48:45;;;;;;;25.98;18.98;;;;;;;12.99;70.76;99780.69;5093636;28;20209;-70
2021/10/17 09:51:14;;;;;;;25.33;18.48;;;;;;;12.97;70.88;99771.81;5085905;28;20200;-71
2021/10/17 09:53:46;;;;;;;29.48;18.40;;;;;;;12.94;70.90;99768.34;5092736;28;20192;-73
2021/10/17 09:56:30;;;;;;;29.38;21.75;;;;;;;12.86;71.34;99775.19;5079753;28;20189;-72
2021/10/17 09:58:57;;;;;;;25.63;19.33;;;;;;;12.90;71.27;99774.03;5075377;28;20182;-71
2021/10/17 10:01:25;;;;;;;27.90;20.42;;;;;;;13.10;70.36;99768.19;5086231;28;20194;-70
2021/10/17 10:03:55;;;;;;;23.55;18.23;;;;;;;13.05;69.62;99774.88;5090985;28;20516;-73
2021/10/17 10:06:23;;;;;;;22.13;16.80;;;;;;;13.17;68.72;99774.06;5078018;28;20542;-73
2021/10/17 10:08:52;;;;;;;23.35;16.58;;;;;;;12.90;69.96;99776.75;5075435;28;20197;-72
2021/10/17 10:11:22;;;;;;;21.25;16.40;;;;;;;12.92;69.73;99772.09;5074510;28;20207;-72
2021/10/17 10:13:51;;;;;;;20.48;14.10;;;;;;;12.97;69.36;99775.38;5078718;28;20195;-72
2021/10/17 10:16:21;;;;;;;24.30;16.52;;;;;;;12.90;69.88;99776.75;5095177;28;20190;-71
2021/10/17 10:18:53;;;;;;;18.95;15.30;;;;;;;13.20;69.07;99783.81;5093257;28;20196;-72
2021/10/17 10:21:22;;;;;;;22.30;15.93;;;;;;;13.12;69.30;99787.03;5079532;28;20201;-72
2021/10/17 10:23:51;;;;;;;22.25;16.42;;;;;;;13.22;69.19;99787.28;5079444;28;20195;-72
2021/10/17 10:26:20;;;;;;;25.95;18.50;;;;;;;13.25;69.10;99784.34;5074453;28;20208;-71
2021/10/17 10:28:47;;;;;;;23.15;17.30;;;;;;;13.35;68.76;99780.13;5074470;28;20234;-73
2021/10/17 10:31:44;;;;;;;27.05;19.73;;;;;;;13.39;68.35;99778.97;5074835;28;20274;-73
2021/10/17 10:34:13;;;;;;;26.48;18.30;;;;;;;13.31;68.10;99778.59;5089327;28;20205;-73
2021/10/17 10:36:42;;;;;;;25.48;17.52;;;;;;;13.50;67.45;99778.22;5094459;28;20225;-73
2021/10/17 10:39:11;;;;;;;21.70;14.95;;;;;;;13.46;67.50;99772.16;5093145;28;20314;-72
2021/10/17 10:41:54;;;;;;;18.90;14.40;;;;;;;13.48;66.62;99781.03;5092314;28;20224;-72
2021/10/17 10:44:22;;;;;;;19.85;13.63;;;;;;;13.33;66.88;99777.50;5092551;28;20198;-71
2021/10/17 10:46:50;;;;;;;23.13;16.45;;;;;;;13.21;67.22;99777.44;5090218;28;20567;-70
2021/10/17 10:49:41;;;;;;;20.67;14.65;;;;;;;13.11;66.32;99778.06;5084950;28;20292;-71
2021/10/17 10:52:10;;;;;;;18.20;13.07;;;;;;;13.46;65.80;99777.56;5073928;28;20521;-72
2021/10/17 10:54:36;;;;;;;21.50;13.52;;;;;;;13.74;64.58;99772.97;5086332;28;20195;-72
2021/10/17 10:57:03;;;;;;;17.15;13.07;;;;;;;14.04;64.15;99771.81;5074083;28;20203;-72
2021/10/17 10:59:59;;;;;;;23.35;15.30;;;;;;;14.07;63.90;99764.38;5073782;28;20641;-73
2021/10/17 11:02:25;;;;;;;20.60;15.02;;;;;;;14.25;63.47;99766.78;5079512;28;20209;-72
2021/10/17 11:05:15;;;;;;;19.40;13.05;;;;;;;14.18;63.02;99769.03;5092058;28;20192;-73
2021/10/17 11:07:43;;;;;;;18.40;14.57;;;;;;;14.05;63.36;99774.44;5081090;28;20210;-73
2021/10/17 11:10:37;;;;;;;18.95;12.65;;;;;;;13.96;63.80;99764.25;5073974;28;20199;-73
2021/10/17 11:13:07;;;;;;;16.13;12.40;;;;;;;14.06;63.73;99772.59;5082863;28;20194;-73
2021/10/17 11:15:35;;;;;;;18.95;13.65;;;;;;;14.21;63.36;99768.81;5087999;28;20587;-73
2021/10/17 11:18:04;;;;;;;19.63;13.90;;;;;;;14.23;63.67;99772.28;5077190;28;20194;-74
2021/10/17 11:20:35;;;;;;;16.73;12.48;;;;;;;14.36;63.30;99766.88;5090040;28;20203;-72